createdAt,value
2018-12-10T00:01:12.308Z,41.83
2018-12-10T00:03:41.370Z,42.87
2018-12-10T00:06:10.426Z,38.07
2018-12-10T00:08:39.518Z,39.07
2018-12-10T00:11:08.573Z,42.43
2018-12-10T00:13:37.632Z,38.97
2018-12-10T00:16:06.732Z,32.13
2018-12-10T00:18:35.777Z,27.43
2018-12-10T00:21:04.847Z,28.17
2018-12-10T00:23:33.922Z,33.10
2018-12-10T00:26:02.972Z,30.97
2018-12-10T00:28:32.033Z,30.47
2018-12-10T00:31:01.133Z,26.03
2018-12-10T00:33:30.207Z,22.53
2018-12-10T00:35:59.258Z,27.87
2018-12-10T00:38:28.338Z,36.13
2018-12-10T00:40:57.382Z,28.20
2018-12-10T00:43:26.435Z,25.87
2018-12-10T00:45:55.509Z,24.40
2018-12-10T00:48:24.568Z,24.83
2018-12-10T00:50:53.618Z,28.63
2018-12-10T00:53:22.778Z,24.10
2018-12-10T00:55:51.827Z,25.07
2018-12-10T00:58:20.877Z,25.27
2018-12-10T01:00:49.969Z,23.67
2018-12-10T01:03:19.027Z,22.20
2018-12-10T01:05:48.076Z,21.87
2018-12-10T01:08:17.165Z,22.67
2018-12-10T01:10:46.228Z,18.90
2018-12-10T01:13:15.281Z,23.00
2018-12-10T01:15:44.354Z,17.37
2018-12-10T01:18:13.401Z,17.60
2018-12-10T01:20:42.462Z,19.47
2018-12-10T01:23:11.567Z,17.50
2018-12-10T01:25:40.613Z,20.63
2018-12-10T01:28:09.661Z,17.07
2018-12-10T01:30:39.019Z,16.30
2018-12-10T01:33:08.051Z,16.90
2018-12-10T01:35:37.101Z,18.03
2018-12-10T01:38:06.176Z,18.70
2018-12-10T01:40:35.212Z,16.87
2018-12-10T01:43:04.258Z,13.37
2018-12-10T01:45:34.448Z,14.47
2018-12-10T01:48:03.489Z,15.57
2018-12-10T01:50:32.532Z,12.83
2018-12-10T01:53:01.610Z,14.03
2018-12-10T01:55:30.646Z,13.47
2018-12-10T01:57:59.691Z,12.93
2018-12-10T02:00:28.756Z,16.07
2018-12-10T02:02:57.806Z,13.70
2018-12-10T02:05:39.672Z,16.30
2018-12-10T02:08:08.719Z,17.00
2018-12-10T02:10:37.761Z,14.07
2018-12-10T02:13:06.846Z,15.37
2018-12-10T02:15:35.899Z,11.90
2018-12-10T02:18:04.938Z,4.87
2018-12-10T02:20:33.999Z,4.30
2018-12-10T02:23:03.034Z,5.13
2018-12-10T02:25:32.071Z,3.83
2018-12-10T02:28:01.144Z,3.80
2018-12-10T02:30:30.180Z,3.53
2018-12-10T02:32:59.226Z,6.00
2018-12-10T02:35:28.326Z,4.70
2018-12-10T02:37:57.361Z,5.30
2018-12-10T02:40:26.395Z,3.47
2018-12-10T02:42:55.463Z,3.33
2018-12-10T02:45:24.505Z,2.70
2018-12-10T02:47:53.542Z,2.63
2018-12-10T02:50:22.624Z,2.27
2018-12-10T02:52:51.657Z,3.17
2018-12-10T02:55:20.691Z,2.90
2018-12-10T02:57:49.740Z,5.47
2018-12-10T03:00:18.792Z,4.13
2018-12-10T03:02:47.819Z,2.67
2018-12-10T03:05:16.867Z,2.53
2018-12-10T03:07:45.905Z,2.40
2018-12-10T03:10:14.957Z,3.30
2018-12-10T03:12:44.047Z,3.00
2018-12-10T03:15:13.088Z,5.47
2018-12-10T03:17:42.125Z,4.97
2018-12-10T03:20:11.189Z,5.40
2018-12-10T03:22:40.224Z,2.57
2018-12-10T03:25:09.252Z,4.70
2018-12-10T03:27:38.309Z,6.27
2018-12-10T03:30:07.336Z,3.93
2018-12-10T03:32:36.379Z,3.50
2018-12-10T03:35:05.457Z,4.43
2018-12-10T03:37:34.476Z,2.97
2018-12-10T03:40:03.511Z,3.90
2018-12-10T03:42:32.573Z,4.30
2018-12-10T03:45:01.603Z,4.40
2018-12-10T03:47:30.645Z,2.10
2018-12-10T03:49:59.698Z,1.80
2018-12-10T03:52:28.728Z,3.03
2018-12-10T03:54:57.772Z,3.67
2018-12-10T03:57:26.867Z,7.00
2018-12-10T03:59:55.913Z,15.00
2018-12-10T04:02:24.952Z,9.07
2018-12-10T04:04:54.029Z,24.83
2018-12-10T04:07:23.082Z,13.37
2018-12-10T04:09:52.133Z,6.93
2018-12-10T04:12:21.205Z,4.00
2018-12-10T04:14:50.247Z,7.40
2018-12-10T04:17:19.284Z,4.93
2018-12-10T04:19:48.371Z,3.33
2018-12-10T04:22:17.411Z,3.67
2018-12-10T04:24:46.448Z,4.40
2018-12-10T04:27:15.513Z,7.40
2018-12-10T04:29:44.541Z,7.37
2018-12-10T04:32:13.571Z,5.33
2018-12-10T04:34:42.634Z,8.37
2018-12-10T04:37:11.658Z,7.83
2018-12-10T04:39:40.696Z,11.97
2018-12-10T04:42:09.788Z,10.87
2018-12-10T04:44:38.830Z,11.17
2018-12-10T04:47:07.937Z,10.43
2018-12-10T04:49:36.999Z,9.43
2018-12-10T04:52:06.053Z,11.00
2018-12-10T04:54:35.097Z,12.77
2018-12-10T04:57:04.165Z,13.43
2018-12-10T04:59:33.204Z,13.40
2018-12-10T05:02:02.238Z,19.40
2018-12-10T05:04:31.347Z,16.27
2018-12-10T05:07:00.392Z,13.97
2018-12-10T05:09:29.426Z,10.37
2018-12-10T05:11:58.495Z,11.43
2018-12-10T05:14:27.532Z,10.77
2018-12-10T05:16:56.557Z,9.87
2018-12-10T05:19:25.624Z,10.20
2018-12-10T05:21:54.668Z,18.63
2018-12-10T05:24:23.699Z,14.77
2018-12-10T05:26:52.900Z,11.03
2018-12-10T05:29:21.939Z,8.80
2018-12-10T05:31:50.983Z,11.37
2018-12-10T05:34:20.068Z,11.10
2018-12-10T05:36:49.111Z,12.03
2018-12-10T05:39:18.150Z,11.90
2018-12-10T05:41:47.232Z,16.70
2018-12-10T05:44:16.306Z,16.93
2018-12-10T05:46:45.365Z,16.77
2018-12-10T05:49:14.448Z,16.47
2018-12-10T05:51:43.495Z,17.77
2018-12-10T05:54:12.542Z,16.80
2018-12-10T05:56:41.617Z,17.57
2018-12-10T05:59:10.672Z,18.27
2018-12-10T06:01:39.708Z,19.70
2018-12-10T06:04:08.783Z,17.03
2018-12-10T06:06:37.827Z,24.13
2018-12-10T06:09:06.884Z,21.10
2018-12-10T06:11:35.988Z,21.40
2018-12-10T06:14:05.038Z,19.00
2018-12-10T06:16:34.080Z,16.10
2018-12-10T06:19:03.149Z,12.43
2018-12-10T06:21:32.189Z,14.77
2018-12-10T06:24:01.232Z,14.80
2018-12-10T06:26:30.304Z,14.83
2018-12-10T06:28:59.346Z,17.43
2018-12-10T06:31:28.386Z,17.97
2018-12-10T06:33:57.472Z,14.63
2018-12-10T06:36:26.511Z,17.83
2018-12-10T06:38:55.554Z,22.50
2018-12-10T06:41:24.633Z,19.90
2018-12-10T06:43:53.679Z,21.83
2018-12-10T06:46:22.721Z,22.87
2018-12-10T06:48:51.810Z,21.17
2018-12-10T06:51:20.860Z,22.40
2018-12-10T06:53:49.917Z,21.07
2018-12-10T06:56:19.010Z,17.97
2018-12-10T06:58:48.059Z,21.20
2018-12-10T07:01:17.104Z,24.10
2018-12-10T07:03:46.179Z,16.60
2018-12-10T07:06:15.232Z,19.83
2018-12-10T07:08:44.294Z,23.43
2018-12-10T07:11:13.370Z,23.37
2018-12-10T07:13:42.428Z,24.37
2018-12-10T07:16:12.505Z,24.20
2018-12-10T07:18:41.592Z,24.03
2018-12-10T07:21:10.648Z,22.17
2018-12-10T07:23:39.723Z,24.53
2018-12-10T07:26:08.809Z,20.33
2018-12-10T07:28:38.052Z,19.20
2018-12-10T07:31:06.912Z,21.70
2018-12-10T07:33:36.062Z,24.00
2018-12-10T07:36:05.104Z,22.60
2018-12-10T07:38:34.146Z,23.03
2018-12-10T07:41:03.236Z,31.07
2018-12-10T07:43:32.285Z,29.63
2018-12-10T07:46:01.336Z,31.00
2018-12-10T07:48:30.409Z,30.30
2018-12-10T07:50:59.465Z,28.27
2018-12-10T07:53:28.529Z,23.87
2018-12-10T07:55:57.603Z,20.73
2018-12-10T07:58:26.655Z,21.27
2018-12-10T08:00:55.705Z,23.20
2018-12-10T08:03:24.802Z,31.43
2018-12-10T08:05:53.850Z,25.10
2018-12-10T08:08:22.886Z,29.07
2018-12-10T08:10:51.959Z,30.47
2018-12-10T08:13:21.009Z,33.03
2018-12-10T08:15:50.054Z,25.47
2018-12-10T08:18:19.137Z,26.53
2018-12-10T08:20:48.187Z,26.93
2018-12-10T08:23:17.255Z,22.50
2018-12-10T08:26:05.119Z,18.43
2018-12-10T08:28:34.161Z,18.67
2018-12-10T08:31:03.579Z,18.83
2018-12-10T08:33:32.308Z,20.07
2018-12-10T08:36:01.356Z,22.83
2018-12-10T08:38:30.417Z,23.33
2018-12-10T08:40:59.481Z,24.67
2018-12-10T08:43:28.526Z,27.50
2018-12-10T08:45:57.574Z,24.47
2018-12-10T08:48:26.783Z,25.60
2018-12-10T08:50:55.837Z,24.03
2018-12-10T08:53:24.888Z,25.00
2018-12-10T08:55:53.955Z,29.37
2018-12-10T08:58:23.009Z,29.50
2018-12-10T09:00:52.091Z,29.03
2018-12-10T09:03:21.163Z,25.60
2018-12-10T09:05:50.213Z,21.57
2018-12-10T09:08:19.308Z,23.13
2018-12-10T09:10:48.424Z,19.87
2018-12-10T09:13:17.466Z,15.23
2018-12-10T09:15:46.513Z,15.70
2018-12-10T09:18:15.575Z,17.57
2018-12-10T09:20:44.623Z,16.13
2018-12-10T09:23:13.665Z,17.23
2018-12-10T09:25:42.745Z,13.07
2018-12-10T09:28:19.311Z,14.83
2018-12-10T09:30:40.816Z,12.47
2018-12-10T09:33:09.907Z,12.00
2018-12-10T09:35:38.944Z,11.93
2018-12-10T09:38:07.996Z,13.37
2018-12-10T09:40:37.069Z,15.30
2018-12-10T09:43:06.107Z,16.73
2018-12-10T09:45:35.145Z,14.60
2018-12-10T09:48:04.218Z,11.97
2018-12-10T09:50:33.267Z,16.57
2018-12-10T09:53:02.325Z,14.50
2018-12-10T09:55:43.771Z,14.77
2018-12-10T09:58:12.810Z,14.30
2018-12-10T10:00:41.856Z,18.77
2018-12-10T10:03:10.948Z,14.13
2018-12-10T10:05:39.981Z,11.43
2018-12-10T10:08:09.028Z,7.63
2018-12-10T10:10:38.108Z,6.57
2018-12-10T10:13:07.156Z,8.03
2018-12-10T10:15:36.207Z,9.23
2018-12-10T10:18:05.309Z,7.87
2018-12-10T10:20:34.355Z,45.60
2018-12-10T10:23:03.415Z,62.27
2018-12-10T10:25:47.232Z,8.90
2018-12-10T10:28:16.173Z,6.20
2018-12-10T10:30:45.211Z,7.90
2018-12-10T10:33:14.325Z,11.00
2018-12-10T10:35:43.365Z,7.10
2018-12-10T10:38:12.412Z,12.93
2018-12-10T10:40:41.506Z,23.90
2018-12-10T10:43:10.557Z,40.80
2018-12-10T10:45:42.763Z,28.70
2018-12-10T10:48:11.828Z,30.97
2018-12-10T10:50:40.870Z,24.57
2018-12-10T10:53:09.971Z,15.47
2018-12-10T10:55:39.014Z,15.93
2018-12-10T10:58:08.153Z,16.13
2018-12-10T11:00:42.742Z,13.13
2018-12-10T11:03:17.429Z,18.07
2018-12-10T11:05:51.423Z,13.77
2018-12-10T11:08:20.461Z,13.90
2018-12-10T11:10:49.503Z,11.90
2018-12-10T11:13:18.605Z,17.50
2018-12-10T11:15:47.637Z,13.07
2018-12-10T11:18:16.688Z,14.87
2018-12-10T11:20:45.754Z,15.93
2018-12-10T11:23:14.800Z,14.00
2018-12-10T11:25:43.852Z,14.13
2018-12-10T11:28:12.930Z,18.00
2018-12-10T11:30:41.987Z,18.67
2018-12-10T11:33:11.026Z,18.50
2018-12-10T11:35:40.153Z,22.97
2018-12-10T11:38:09.212Z,15.67
2018-12-10T11:40:38.253Z,12.17
2018-12-10T11:43:07.327Z,13.60
2018-12-10T11:45:36.375Z,11.77
2018-12-10T11:48:05.421Z,10.87
2018-12-10T11:50:34.497Z,10.20
2018-12-10T11:53:03.544Z,8.20
2018-12-10T11:55:32.599Z,11.17
2018-12-10T11:58:01.716Z,14.20
2018-12-10T12:00:30.777Z,11.87
2018-12-10T12:02:59.832Z,17.33
2018-12-10T12:05:32.670Z,13.63
2018-12-10T12:08:01.734Z,15.80
2018-12-10T12:10:30.800Z,17.13
2018-12-10T12:13:00.144Z,13.23
2018-12-10T12:15:29.183Z,11.67
2018-12-10T12:17:58.289Z,13.43
2018-12-10T12:20:27.461Z,13.83
2018-12-10T12:22:56.511Z,11.30
2018-12-10T12:25:25.552Z,14.23
2018-12-10T12:27:54.628Z,14.07
2018-12-10T12:30:23.677Z,11.03
2018-12-10T12:32:52.726Z,13.73
2018-12-10T12:35:21.806Z,10.87
2018-12-10T12:37:50.858Z,16.93
2018-12-10T12:40:19.920Z,19.87
2018-12-10T12:42:49.015Z,13.00
2018-12-10T12:45:18.063Z,14.00
2018-12-10T12:47:47.121Z,14.67
2018-12-10T12:50:16.204Z,12.27
2018-12-10T12:52:45.254Z,18.00
2018-12-10T12:55:14.299Z,5.73
2018-12-10T12:57:43.373Z,9.93
2018-12-10T13:00:12.430Z,5.43
2018-12-10T13:02:41.472Z,8.80
2018-12-10T13:05:10.570Z,6.80
2018-12-10T13:07:39.628Z,17.80
2018-12-10T13:10:08.677Z,9.00
2018-12-10T13:12:37.740Z,9.97
2018-12-10T13:15:06.785Z,8.30
2018-12-10T13:17:35.844Z,10.57
2018-12-10T13:20:04.913Z,11.27
2018-12-10T13:22:33.961Z,13.17
2018-12-10T13:25:03.025Z,15.13
2018-12-10T13:27:32.129Z,19.03
2018-12-10T13:30:01.190Z,22.07
2018-12-10T13:32:30.245Z,32.23
2018-12-10T13:34:59.338Z,30.27
2018-12-10T13:37:28.396Z,30.27
2018-12-10T13:39:57.448Z,34.27
2018-12-10T13:42:26.542Z,35.10
2018-12-10T13:44:55.604Z,34.47
2018-12-10T13:47:24.657Z,43.40
2018-12-10T13:49:53.751Z,50.70
2018-12-10T13:52:22.811Z,46.93
2018-12-10T13:54:51.873Z,40.53
2018-12-10T13:57:20.953Z,35.57
2018-12-10T13:59:50.005Z,33.97
2018-12-10T14:02:19.060Z,32.30
2018-12-10T14:04:48.152Z,29.97
2018-12-10T14:07:17.238Z,31.87
2018-12-10T14:09:46.264Z,34.70
2018-12-10T14:12:15.387Z,30.13
2018-12-10T14:14:44.447Z,34.90
2018-12-10T14:17:13.506Z,37.63
2018-12-10T14:19:42.601Z,40.67
2018-12-10T14:22:11.669Z,42.70
2018-12-10T14:24:40.728Z,37.80
2018-12-10T14:27:09.813Z,47.67
2018-12-10T14:29:38.873Z,105.17
2018-12-10T14:32:07.952Z,124.23
2018-12-10T14:34:37.071Z,94.70
2018-12-10T14:37:06.120Z,144.60
2018-12-10T14:39:35.194Z,135.07
2018-12-10T14:42:04.282Z,86.60
2018-12-10T14:44:33.345Z,43.60
2018-12-10T14:47:02.401Z,30.17
2018-12-10T14:49:31.489Z,40.47
2018-12-10T14:52:00.541Z,43.10
2018-12-10T14:54:29.612Z,35.10
2018-12-10T14:56:58.738Z,34.57
2018-12-10T14:59:27.794Z,44.63
2018-12-10T15:01:56.856Z,82.97
2018-12-10T15:04:25.937Z,44.97
2018-12-10T15:06:55.035Z,27.87
2018-12-10T15:09:24.048Z,34.27
2018-12-10T15:11:53.126Z,43.57
2018-12-10T15:14:22.180Z,43.77
2018-12-10T15:16:51.248Z,51.40
2018-12-10T15:19:20.784Z,71.17
2018-12-10T15:21:49.848Z,76.83
2018-12-10T15:24:18.892Z,69.43
2018-12-10T15:26:47.977Z,44.07
2018-12-10T15:29:17.031Z,57.30
2018-12-10T15:31:46.101Z,47.83
2018-12-10T15:34:15.191Z,42.57
2018-12-10T15:36:44.255Z,57.97
2018-12-10T15:39:13.311Z,77.97
2018-12-10T15:41:42.412Z,81.50
2018-12-10T15:44:11.473Z,55.17
2018-12-10T15:46:40.528Z,41.00
2018-12-10T15:49:09.628Z,40.73
2018-12-10T15:51:38.688Z,35.63
2018-12-10T15:54:07.739Z,38.37
2018-12-10T15:56:36.844Z,38.87
2018-12-10T15:59:05.897Z,29.00
2018-12-10T16:01:34.961Z,50.53
2018-12-10T16:04:04.798Z,64.00
2018-12-10T16:06:35.776Z,55.57
2018-12-10T16:09:04.871Z,47.23
2018-12-10T16:11:36.590Z,69.03
2018-12-10T16:14:06.801Z,66.10
2018-12-10T16:16:35.542Z,62.27
2018-12-10T16:19:04.754Z,35.03
2018-12-10T16:21:33.905Z,54.70
2018-12-10T16:24:03.092Z,29.30
2018-12-10T16:26:32.305Z,29.00
2018-12-10T16:29:01.363Z,35.93
2018-12-10T16:31:30.519Z,39.93
2018-12-10T16:34:00.007Z,33.03
2018-12-10T16:36:29.329Z,31.43
2018-12-10T16:39:02.455Z,35.23
2018-12-10T16:41:32.435Z,51.63
2018-12-10T16:44:02.875Z,37.50
2018-12-10T16:46:34.021Z,33.83
2018-12-10T16:49:03.042Z,64.87
2018-12-10T16:51:32.113Z,48.60
2018-12-10T16:54:01.187Z,62.70
2018-12-10T16:56:30.247Z,52.03
2018-12-10T16:58:59.322Z,23.90
2018-12-10T17:01:28.715Z,18.60
2018-12-10T17:03:57.776Z,26.30
2018-12-10T17:06:26.856Z,37.37
2018-12-10T17:08:56.101Z,40.60
2018-12-10T17:11:25.335Z,98.93
2018-12-10T17:13:54.390Z,44.13
2018-12-10T17:16:23.478Z,41.40
2018-12-10T17:18:52.544Z,25.33
2018-12-10T17:21:21.602Z,33.97
2018-12-10T17:23:50.699Z,40.67
2018-12-10T17:26:19.759Z,67.43
2018-12-10T17:28:48.817Z,67.20
2018-12-10T17:31:17.969Z,71.67
2018-12-10T17:33:47.013Z,73.27
2018-12-10T17:39:17.417Z,75.97
2018-12-10T17:41:46.512Z,73.93
2018-12-10T17:44:15.615Z,72.77
2018-12-10T17:46:44.621Z,81.70
2018-12-10T17:49:13.754Z,81.77
2018-12-10T17:51:42.812Z,68.70
2018-12-10T17:54:11.871Z,57.87
2018-12-10T17:56:40.966Z,48.73
2018-12-10T17:59:10.012Z,77.90
2018-12-10T18:01:39.062Z,153.73
2018-12-10T18:04:08.171Z,253.27
2018-12-10T18:06:37.278Z,134.83
2018-12-10T18:09:06.343Z,147.53
2018-12-10T18:11:35.457Z,114.67
2018-12-10T18:14:04.509Z,58.03
2018-12-10T18:16:33.563Z,43.33
2018-12-10T18:19:02.671Z,44.80
2018-12-10T18:21:31.725Z,86.27
2018-12-10T18:24:00.785Z,86.80
2018-12-10T18:26:29.866Z,41.83
2018-12-10T18:28:58.938Z,37.67
2018-12-10T18:31:27.989Z,36.77
2018-12-10T18:33:57.095Z,39.43
2018-12-10T18:36:26.153Z,62.07
2018-12-10T18:38:55.201Z,45.23
2018-12-10T18:41:24.280Z,58.53
2018-12-10T18:43:53.325Z,47.00
2018-12-10T18:46:22.388Z,35.37
2018-12-10T18:48:51.476Z,33.50
2018-12-10T18:51:20.532Z,46.77
2018-12-10T18:53:49.678Z,52.47
2018-12-10T18:56:31.728Z,60.17
2018-12-10T18:59:00.792Z,73.47
2018-12-10T19:01:29.869Z,65.53
2018-12-10T19:03:58.959Z,67.20
2018-12-10T19:06:28.024Z,65.67
2018-12-10T19:08:57.083Z,54.03
2018-12-10T19:11:26.196Z,50.90
2018-12-10T19:13:55.616Z,66.93
2018-12-10T19:16:24.721Z,40.27
2018-12-10T19:19:13.011Z,112.30
2018-12-10T19:24:33.106Z,133.63
2018-12-10T19:27:02.198Z,175.00
2018-12-10T19:29:31.282Z,42.47
2018-12-10T19:32:00.462Z,68.70
2018-12-10T19:34:29.556Z,71.13
2018-12-10T19:36:58.630Z,71.97
2018-12-10T19:39:27.785Z,55.93
2018-12-10T19:41:56.840Z,67.70
2018-12-10T19:44:25.911Z,46.13
2018-12-10T19:46:55.002Z,61.63
2018-12-10T19:49:24.053Z,43.60
2018-12-10T19:51:53.116Z,49.83
2018-12-10T19:54:22.204Z,30.10
2018-12-10T19:56:51.312Z,27.57
2018-12-10T19:59:20.375Z,22.60
2018-12-10T20:01:49.498Z,36.97
2018-12-10T20:04:18.558Z,47.60
2018-12-10T20:06:53.117Z,44.40
2018-12-10T20:09:22.181Z,36.13
2018-12-10T20:11:51.252Z,34.40
2018-12-10T20:14:20.330Z,23.80
2018-12-10T20:16:49.381Z,38.90
2018-12-10T20:19:18.434Z,44.90
2018-12-10T20:21:47.575Z,43.37
2018-12-10T20:24:16.647Z,54.27
2018-12-10T20:26:45.709Z,43.10
2018-12-10T20:29:14.798Z,35.97
2018-12-10T20:31:43.879Z,37.60
2018-12-10T20:34:12.915Z,20.23
2018-12-10T20:36:42.059Z,20.67
2018-12-10T20:39:11.092Z,24.00
2018-12-10T20:41:40.162Z,18.33
2018-12-10T20:44:09.292Z,23.77
2018-12-10T20:46:38.336Z,14.93
2018-12-10T20:49:07.378Z,13.43
2018-12-10T20:51:36.451Z,14.17
2018-12-10T20:54:05.497Z,18.27
2018-12-10T20:56:34.530Z,8.70
2018-12-10T20:59:03.609Z,14.27
2018-12-10T21:01:32.662Z,12.00
2018-12-10T21:04:01.711Z,12.43
2018-12-10T21:06:34.895Z,15.83
2018-12-10T21:09:03.933Z,12.33
2018-12-10T21:11:32.971Z,8.77
2018-12-10T21:14:02.051Z,11.20
2018-12-10T21:16:31.098Z,11.87
2018-12-10T21:19:00.153Z,12.63
2018-12-10T21:21:29.228Z,11.33
2018-12-10T21:23:58.292Z,8.70
2018-12-10T21:26:27.352Z,9.43
2018-12-10T21:28:56.531Z,14.57
2018-12-10T21:31:25.598Z,15.70
2018-12-10T21:33:54.641Z,17.13
2018-12-10T21:36:23.737Z,19.50
2018-12-10T21:38:52.802Z,12.53
2018-12-10T21:41:21.851Z,16.90
2018-12-10T21:43:50.928Z,16.30
2018-12-10T21:46:20.955Z,12.87
2018-12-10T21:48:50.021Z,16.10
2018-12-10T21:51:19.189Z,14.83
2018-12-10T21:53:48.243Z,12.97
2018-12-10T21:56:17.336Z,12.00
2018-12-10T21:58:46.414Z,13.77
2018-12-10T22:01:15.460Z,16.43
2018-12-10T22:03:44.518Z,19.57
2018-12-10T22:06:13.586Z,12.33
2018-12-10T22:08:42.629Z,9.37
2018-12-10T22:11:11.685Z,12.40
2018-12-10T22:13:40.779Z,14.23
2018-12-10T22:16:09.826Z,10.33
2018-12-10T22:18:38.887Z,12.57
2018-12-10T22:21:08.046Z,11.77
2018-12-10T22:23:37.123Z,11.17
2018-12-10T22:26:06.171Z,9.20
2018-12-10T22:28:35.244Z,7.57
2018-12-10T22:31:04.309Z,7.57
2018-12-10T22:33:33.355Z,6.07
2018-12-10T22:36:02.495Z,10.13
2018-12-10T22:38:31.548Z,8.13
2018-12-10T22:41:00.600Z,7.17
2018-12-10T22:43:29.677Z,14.33
2018-12-10T22:46:15.227Z,7.73
2018-12-10T22:48:44.294Z,7.97
2018-12-10T22:51:13.345Z,12.57
2018-12-10T22:53:42.412Z,10.67
2018-12-10T22:56:11.595Z,15.57
2018-12-10T22:58:40.649Z,13.17
2018-12-10T23:01:09.707Z,18.37
2018-12-10T23:03:38.802Z,13.17
2018-12-10T23:06:07.852Z,20.60
2018-12-10T23:08:36.896Z,14.73
2018-12-10T23:11:05.974Z,16.93
2018-12-10T23:13:35.032Z,12.07
2018-12-10T23:16:04.093Z,11.93
2018-12-10T23:18:33.197Z,15.50
2018-12-10T23:21:02.231Z,9.03
2018-12-10T23:23:31.279Z,8.03
2018-12-10T23:26:00.360Z,10.77
2018-12-10T23:28:29.417Z,8.77
2018-12-10T23:30:58.462Z,8.97
2018-12-10T23:33:27.546Z,7.10
2018-12-10T23:35:56.588Z,6.57
2018-12-10T23:38:25.641Z,6.40
2018-12-10T23:40:54.756Z,7.50
2018-12-10T23:43:24.785Z,11.13
2018-12-10T23:46:14.331Z,16.17
2018-12-10T23:48:43.383Z,10.47
2018-12-10T23:51:12.444Z,12.30
2018-12-10T23:53:41.513Z,8.97
2018-12-10T23:56:10.564Z,9.90
2018-12-10T23:58:39.617Z,9.20
